sensor_id;sensor_type;location;lat;lon;timestamp;P1;durP1;ratioP1;P2;durP2;ratioP2
35330;SDS011;21441;52.190;20.910;2024-02-16T00:01:55;30.88;;;18.88;;
35330;SDS011;21441;52.190;20.910;2024-02-16T00:04:23;31.55;;;19.02;;
35330;SDS011;21441;52.190;20.910;2024-02-16T00:06:50;29.98;;;17.27;;
35330;SDS011;21441;52.190;20.910;2024-02-16T00:09:17;27.63;;;17.50;;
35330;SDS011;21441;52.190;20.910;2024-02-16T00:11:44;30.75;;;16.92;;
35330;SDS011;21441;52.190;20.910;2024-02-16T00:14:12;28.05;;;16.48;;
35330;SDS011;21441;52.190;20.910;2024-02-16T00:16:39;24.15;;;16.13;;
35330;SDS011;21441;52.190;20.910;2024-02-16T00:19:06;30.85;;;16.35;;
35330;SDS011;21441;52.190;20.910;2024-02-16T00:21:34;26.80;;;15.88;;
35330;SDS011;21441;52.190;20.910;2024-02-16T00:24:01;24.10;;;15.68;;
35330;SDS011;21441;52.190;20.910;2024-02-16T00:26:28;26.63;;;16.77;;
35330;SDS011;21441;52.190;20.910;2024-02-16T00:28:55;28.77;;;15.75;;
35330;SDS011;21441;52.190;20.910;2024-02-16T00:31:21;28.80;;;16.25;;
35330;SDS011;21441;52.190;20.910;2024-02-16T00:33:48;23.73;;;15.13;;
35330;SDS011;21441;52.190;20.910;2024-02-16T00:36:15;25.40;;;15.82;;
35330;SDS011;21441;52.190;20.910;2024-02-16T00:38:43;24.45;;;15.40;;
35330;SDS011;21441;52.190;20.910;2024-02-16T00:41:16;23.52;;;14.45;;
35330;SDS011;21441;52.190;20.910;2024-02-16T00:43:43;22.73;;;13.95;;
35330;SDS011;21441;52.190;20.910;2024-02-16T00:46:10;26.73;;;14.38;;
35330;SDS011;21441;52.190;20.910;2024-02-16T00:48:37;27.58;;;15.25;;
35330;SDS011;21441;52.190;20.910;2024-02-16T00:51:03;26.85;;;14.15;;
35330;SDS011;21441;52.190;20.910;2024-02-16T00:53:30;21.90;;;15.13;;
35330;SDS011;21441;52.190;20.910;2024-02-16T00:55:58;24.45;;;14.57;;
35330;SDS011;21441;52.190;20.910;2024-02-16T00:58:25;24.30;;;14.52;;
35330;SDS011;21441;52.190;20.910;2024-02-16T01:00:52;23.95;;;14.27;;
35330;SDS011;21441;52.190;20.910;2024-02-16T01:03:19;20.98;;;13.55;;
35330;SDS011;21441;52.190;20.910;2024-02-16T01:05:48;25.73;;;14.10;;
35330;SDS011;21441;52.190;20.910;2024-02-16T01:08:14;19.95;;;11.45;;
35330;SDS011;21441;52.190;20.910;2024-02-16T01:10:41;18.25;;;11.48;;
35330;SDS011;21441;52.190;20.910;2024-02-16T01:13:09;22.75;;;12.63;;
35330;SDS011;21441;52.190;20.910;2024-02-16T01:15:36;17.80;;;11.93;;
35330;SDS011;21441;52.190;20.910;2024-02-16T01:18:03;19.10;;;11.43;;
35330;SDS011;21441;52.190;20.910;2024-02-16T01:20:30;22.63;;;12.75;;
35330;SDS011;21441;52.190;20.910;2024-02-16T01:22:57;19.27;;;11.68;;
35330;SDS011;21441;52.190;20.910;2024-02-16T01:25:24;17.77;;;11.40;;
35330;SDS011;21441;52.190;20.910;2024-02-16T01:27:51;18.23;;;10.75;;
35330;SDS011;21441;52.190;20.910;2024-02-16T01:30:19;14.82;;;9.25;;
35330;SDS011;21441;52.190;20.910;2024-02-16T01:32:47;17.67;;;10.43;;
35330;SDS011;21441;52.190;20.910;2024-02-16T01:35:13;15.23;;;10.98;;
35330;SDS011;21441;52.190;20.910;2024-02-16T01:37:41;15.07;;;10.35;;
35330;SDS011;21441;52.190;20.910;2024-02-16T01:40:08;17.65;;;10.95;;
35330;SDS011;21441;52.190;20.910;2024-02-16T01:42:39;17.83;;;9.38;;
35330;SDS011;21441;52.190;20.910;2024-02-16T01:45:06;16.13;;;10.13;;
35330;SDS011;21441;52.190;20.910;2024-02-16T01:47:35;17.48;;;10.32;;
35330;SDS011;21441;52.190;20.910;2024-02-16T01:50:03;18.70;;;9.70;;
35330;SDS011;21441;52.190;20.910;2024-02-16T01:52:30;19.52;;;10.65;;
35330;SDS011;21441;52.190;20.910;2024-02-16T01:54:56;15.88;;;9.73;;
35330;SDS011;21441;52.190;20.910;2024-02-16T01:57:23;15.80;;;9.70;;
35330;SDS011;21441;52.190;20.910;2024-02-16T01:59:50;15.27;;;10.43;;
35330;SDS011;21441;52.190;20.910;2024-02-16T02:02:17;18.98;;;11.15;;
35330;SDS011;21441;52.190;20.910;2024-02-16T02:04:45;17.75;;;10.35;;
35330;SDS011;21441;52.190;20.910;2024-02-16T02:07:12;14.60;;;9.85;;
35330;SDS011;21441;52.190;20.910;2024-02-16T02:09:38;16.83;;;11.10;;
35330;SDS011;21441;52.190;20.910;2024-02-16T02:12:06;22.95;;;10.50;;
35330;SDS011;21441;52.190;20.910;2024-02-16T02:14:32;16.67;;;10.43;;
35330;SDS011;21441;52.190;20.910;2024-02-16T02:16:59;16.92;;;9.93;;
35330;SDS011;21441;52.190;20.910;2024-02-16T02:19:26;15.27;;;9.70;;
35330;SDS011;21441;52.190;20.910;2024-02-16T02:21:54;15.88;;;10.30;;
35330;SDS011;21441;52.190;20.910;2024-02-16T02:24:22;21.55;;;11.95;;
35330;SDS011;21441;52.190;20.910;2024-02-16T02:26:49;19.65;;;9.93;;
35330;SDS011;21441;52.190;20.910;2024-02-16T02:29:16;17.10;;;11.25;;
35330;SDS011;21441;52.190;20.910;2024-02-16T02:31:43;15.32;;;10.02;;
35330;SDS011;21441;52.190;20.910;2024-02-16T02:34:09;17.42;;;10.48;;
35330;SDS011;21441;52.190;20.910;2024-02-16T02:36:36;14.88;;;10.80;;
35330;SDS011;21441;52.190;20.910;2024-02-16T02:39:03;15.52;;;10.15;;
35330;SDS011;21441;52.190;20.910;2024-02-16T02:41:31;16.10;;;9.27;;
35330;SDS011;21441;52.190;20.910;2024-02-16T02:43:58;16.77;;;10.52;;
35330;SDS011;21441;52.190;20.910;2024-02-16T02:46:25;15.77;;;9.98;;
35330;SDS011;21441;52.190;20.910;2024-02-16T02:48:53;19.05;;;10.20;;
35330;SDS011;21441;52.190;20.910;2024-02-16T02:51:20;16.35;;;10.25;;
35330;SDS011;21441;52.190;20.910;2024-02-16T02:53:46;16.45;;;10.30;;
35330;SDS011;21441;52.190;20.910;2024-02-16T02:56:13;16.10;;;10.73;;
35330;SDS011;21441;52.190;20.910;2024-02-16T02:58:41;18.67;;;10.63;;
35330;SDS011;21441;52.190;20.910;2024-02-16T03:01:08;15.65;;;10.15;;
35330;SDS011;21441;52.190;20.910;2024-02-16T03:03:35;16.25;;;10.13;;
35330;SDS011;21441;52.190;20.910;2024-02-16T03:06:02;16.15;;;10.38;;
35330;SDS011;21441;52.190;20.910;2024-02-16T03:08:29;14.27;;;9.70;;
35330;SDS011;21441;52.190;20.910;2024-02-16T03:10:56;15.32;;;10.93;;
35330;SDS011;21441;52.190;20.910;2024-02-16T03:13:25;19.23;;;10.50;;
35330;SDS011;21441;52.190;20.910;2024-02-16T03:15:54;15.77;;;10.68;;
35330;SDS011;21441;52.190;20.910;2024-02-16T03:18:20;14.65;;;9.73;;
35330;SDS011;21441;52.190;20.910;2024-02-16T03:20:47;16.60;;;10.80;;
35330;SDS011;21441;52.190;20.910;2024-02-16T03:23:15;16.88;;;10.27;;
35330;SDS011;21441;52.190;20.910;2024-02-16T03:25:42;19.27;;;11.65;;
35330;SDS011;21441;52.190;20.910;2024-02-16T03:28:10;18.35;;;11.27;;
35330;SDS011;21441;52.190;20.910;2024-02-16T03:30:38;18.38;;;10.52;;
35330;SDS011;21441;52.190;20.910;2024-02-16T03:33:06;17.38;;;9.95;;
35330;SDS011;21441;52.190;20.910;2024-02-16T03:35:33;16.08;;;10.32;;
35330;SDS011;21441;52.190;20.910;2024-02-16T03:38:00;15.70;;;9.30;;
35330;SDS011;21441;52.190;20.910;2024-02-16T03:40:27;16.02;;;10.38;;
35330;SDS011;21441;52.190;20.910;2024-02-16T03:42:54;17.05;;;10.23;;
35330;SDS011;21441;52.190;20.910;2024-02-16T03:45:21;14.25;;;9.52;;
35330;SDS011;21441;52.190;20.910;2024-02-16T03:47:48;19.73;;;10.23;;
35330;SDS011;21441;52.190;20.910;2024-02-16T03:50:19;16.92;;;9.85;;
35330;SDS011;21441;52.190;20.910;2024-02-16T03:52:46;14.57;;;10.10;;
35330;SDS011;21441;52.190;20.910;2024-02-16T03:55:13;15.68;;;9.50;;
35330;SDS011;21441;52.190;20.910;2024-02-16T03:57:40;16.50;;;10.98;;
35330;SDS011;21441;52.190;20.910;2024-02-16T04:00:07;14.95;;;9.80;;
35330;SDS011;21441;52.190;20.910;2024-02-16T04:02:34;18.20;;;10.93;;
35330;SDS011;21441;52.190;20.910;2024-02-16T04:05:02;15.60;;;9.38;;
35330;SDS011;21441;52.190;20.910;2024-02-16T04:07:30;18.40;;;10.93;;
35330;SDS011;21441;52.190;20.910;2024-02-16T04:09:57;16.83;;;10.20;;
35330;SDS011;21441;52.190;20.910;2024-02-16T04:12:25;15.73;;;10.07;;
35330;SDS011;21441;52.190;20.910;2024-02-16T04:14:52;16.50;;;10.45;;
35330;SDS011;21441;52.190;20.910;2024-02-16T04:17:19;18.88;;;11.32;;
35330;SDS011;21441;52.190;20.910;2024-02-16T04:19:46;16.13;;;10.57;;
35330;SDS011;21441;52.190;20.910;2024-02-16T04:22:13;15.27;;;10.40;;
35330;SDS011;21441;52.190;20.910;2024-02-16T04:24:41;17.38;;;9.30;;
35330;SDS011;21441;52.190;20.910;2024-02-16T04:27:08;19.90;;;11.13;;
35330;SDS011;21441;52.190;20.910;2024-02-16T04:29:34;18.20;;;10.43;;
35330;SDS011;21441;52.190;20.910;2024-02-16T04:32:00;16.63;;;9.70;;
35330;SDS011;21441;52.190;20.910;2024-02-16T04:34:27;15.52;;;9.93;;
35330;SDS011;21441;52.190;20.910;2024-02-16T04:36:57;13.30;;;9.70;;
35330;SDS011;21441;52.190;20.910;2024-02-16T04:39:24;15.75;;;10.77;;
35330;SDS011;21441;52.190;20.910;2024-02-16T04:41:52;19.48;;;10.18;;
35330;SDS011;21441;52.190;20.910;2024-02-16T04:44:19;17.55;;;10.95;;
35330;SDS011;21441;52.190;20.910;2024-02-16T04:46:45;16.92;;;10.18;;
35330;SDS011;21441;52.190;20.910;2024-02-16T04:49:15;17.80;;;12.27;;
35330;SDS011;21441;52.190;20.910;2024-02-16T04:51:51;19.00;;;12.75;;
35330;SDS011;21441;52.190;20.910;2024-02-16T04:54:18;25.25;;;13.45;;
35330;SDS011;21441;52.190;20.910;2024-02-16T04:56:45;25.52;;;13.02;;
35330;SDS011;21441;52.190;20.910;2024-02-16T04:59:13;21.40;;;12.77;;
35330;SDS011;21441;52.190;20.910;2024-02-16T05:01:40;20.52;;;11.88;;
35330;SDS011;21441;52.190;20.910;2024-02-16T05:04:07;19.45;;;10.93;;
35330;SDS011;21441;52.190;20.910;2024-02-16T05:06:38;20.35;;;10.55;;
35330;SDS011;21441;52.190;20.910;2024-02-16T05:09:08;16.60;;;9.95;;
35330;SDS011;21441;52.190;20.910;2024-02-16T05:11:35;19.05;;;11.88;;
35330;SDS011;21441;52.190;20.910;2024-02-16T05:14:02;17.40;;;11.35;;
35330;SDS011;21441;52.190;20.910;2024-02-16T05:16:30;20.45;;;11.00;;
35330;SDS011;21441;52.190;20.910;2024-02-16T05:18:57;19.65;;;11.57;;
35330;SDS011;21441;52.190;20.910;2024-02-16T05:21:24;17.60;;;11.70;;
35330;SDS011;21441;52.190;20.910;2024-02-16T05:23:51;17.17;;;10.93;;
35330;SDS011;21441;52.190;20.910;2024-02-16T05:26:17;17.30;;;10.40;;
35330;SDS011;21441;52.190;20.910;2024-02-16T05:28:46;22.38;;;11.55;;
35330;SDS011;21441;52.190;20.910;2024-02-16T05:31:13;17.48;;;10.98;;
35330;SDS011;21441;52.190;20.910;2024-02-16T05:33:42;16.05;;;11.07;;
35330;SDS011;21441;52.190;20.910;2024-02-16T05:36:10;24.25;;;12.10;;
35330;SDS011;21441;52.190;20.910;2024-02-16T05:38:37;19.92;;;11.85;;
35330;SDS011;21441;52.190;20.910;2024-02-16T05:41:06;19.77;;;11.57;;
35330;SDS011;21441;52.190;20.910;2024-02-16T05:43:33;17.65;;;11.18;;
35330;SDS011;21441;52.190;20.910;2024-02-16T05:46:00;20.20;;;11.45;;
35330;SDS011;21441;52.190;20.910;2024-02-16T05:48:27;20.65;;;11.38;;
35330;SDS011;21441;52.190;20.910;2024-02-16T05:50:59;18.67;;;11.48;;
35330;SDS011;21441;52.190;20.910;2024-02-16T05:53:27;20.38;;;12.90;;
35330;SDS011;21441;52.190;20.910;2024-02-16T05:55:53;19.23;;;12.13;;
35330;SDS011;21441;52.190;20.910;2024-02-16T05:58:20;17.80;;;12.55;;
35330;SDS011;21441;52.190;20.910;2024-02-16T06:00:48;21.10;;;11.50;;
35330;SDS011;21441;52.190;20.910;2024-02-16T06:03:15;21.73;;;12.50;;
35330;SDS011;21441;52.190;20.910;2024-02-16T06:05:42;22.73;;;12.75;;
35330;SDS011;21441;52.190;20.910;2024-02-16T06:08:11;20.05;;;12.38;;
35330;SDS011;21441;52.190;20.910;2024-02-16T06:10:40;21.05;;;12.75;;
35330;SDS011;21441;52.190;20.910;2024-02-16T06:13:07;21.10;;;11.70;;
35330;SDS011;21441;52.190;20.910;2024-02-16T06:15:34;21.20;;;11.98;;
35330;SDS011;21441;52.190;20.910;2024-02-16T06:18:03;18.65;;;12.25;;
35330;SDS011;21441;52.190;20.910;2024-02-16T06:20:29;20.70;;;11.32;;
35330;SDS011;21441;52.190;20.910;2024-02-16T06:22:56;18.65;;;11.00;;
35330;SDS011;21441;52.190;20.910;2024-02-16T06:25:24;19.20;;;11.80;;
35330;SDS011;21441;52.190;20.910;2024-02-16T06:27:51;21.55;;;11.77;;
35330;SDS011;21441;52.190;20.910;2024-02-16T06:30:17;20.13;;;11.55;;
35330;SDS011;21441;52.190;20.910;2024-02-16T06:32:44;20.92;;;13.18;;
35330;SDS011;21441;52.190;20.910;2024-02-16T06:35:11;16.38;;;10.85;;
35330;SDS011;21441;52.190;20.910;2024-02-16T06:37:38;20.83;;;13.10;;
35330;SDS011;21441;52.190;20.910;2024-02-16T06:40:05;18.75;;;11.68;;
35330;SDS011;21441;52.190;20.910;2024-02-16T06:42:36;12.55;;;8.75;;
35330;SDS011;21441;52.190;20.910;2024-02-16T06:45:03;18.45;;;11.50;;
35330;SDS011;21441;52.190;20.910;2024-02-16T06:47:31;18.50;;;13.05;;
35330;SDS011;21441;52.190;20.910;2024-02-16T06:49:57;18.08;;;12.45;;
35330;SDS011;21441;52.190;20.910;2024-02-16T06:52:24;20.08;;;11.77;;
35330;SDS011;21441;52.190;20.910;2024-02-16T06:54:51;20.77;;;12.35;;
35330;SDS011;21441;52.190;20.910;2024-02-16T06:57:18;20.45;;;12.68;;
35330;SDS011;21441;52.190;20.910;2024-02-16T06:59:47;21.23;;;12.27;;
35330;SDS011;21441;52.190;20.910;2024-02-16T07:02:14;22.88;;;13.77;;
35330;SDS011;21441;52.190;20.910;2024-02-16T07:04:43;33.25;;;12.15;;
35330;SDS011;21441;52.190;20.910;2024-02-16T07:07:11;22.85;;;12.00;;
35330;SDS011;21441;52.190;20.910;2024-02-16T07:09:37;32.13;;;12.65;;
35330;SDS011;21441;52.190;20.910;2024-02-16T07:12:05;18.73;;;11.77;;
35330;SDS011;21441;52.190;20.910;2024-02-16T07:14:32;21.10;;;11.75;;
35330;SDS011;21441;52.190;20.910;2024-02-16T07:17:00;21.73;;;11.73;;
35330;SDS011;21441;52.190;20.910;2024-02-16T07:19:27;16.48;;;11.30;;
35330;SDS011;21441;52.190;20.910;2024-02-16T07:21:54;18.73;;;11.57;;
35330;SDS011;21441;52.190;20.910;2024-02-16T07:24:21;17.08;;;10.90;;
35330;SDS011;21441;52.190;20.910;2024-02-16T07:26:48;19.75;;;12.20;;
35330;SDS011;21441;52.190;20.910;2024-02-16T07:29:15;16.60;;;12.40;;
35330;SDS011;21441;52.190;20.910;2024-02-16T07:31:42;20.65;;;11.80;;
35330;SDS011;21441;52.190;20.910;2024-02-16T07:34:10;19.83;;;12.43;;
35330;SDS011;21441;52.190;20.910;2024-02-16T07:36:38;17.75;;;11.52;;
35330;SDS011;21441;52.190;20.910;2024-02-16T07:39:04;26.90;;;12.77;;
35330;SDS011;21441;52.190;20.910;2024-02-16T07:41:31;17.80;;;11.65;;
35330;SDS011;21441;52.190;20.910;2024-02-16T07:43:58;16.38;;;11.02;;
35330;SDS011;21441;52.190;20.910;2024-02-16T07:46:25;19.83;;;11.52;;
35330;SDS011;21441;52.190;20.910;2024-02-16T07:48:52;18.50;;;11.48;;
35330;SDS011;21441;52.190;20.910;2024-02-16T07:51:20;23.17;;;12.50;;
35330;SDS011;21441;52.190;20.910;2024-02-16T07:53:47;21.63;;;12.18;;
35330;SDS011;21441;52.190;20.910;2024-02-16T07:56:14;28.10;;;14.25;;
35330;SDS011;21441;52.190;20.910;2024-02-16T07:58:41;24.33;;;12.73;;
35330;SDS011;21441;52.190;20.910;2024-02-16T08:01:08;19.33;;;11.60;;
35330;SDS011;21441;52.190;20.910;2024-02-16T08:03:36;19.85;;;13.27;;
35330;SDS011;21441;52.190;20.910;2024-02-16T08:06:03;21.98;;;12.13;;
35330;SDS011;21441;52.190;20.910;2024-02-16T08:08:32;19.83;;;12.48;;
35330;SDS011;21441;52.190;20.910;2024-02-16T08:10:59;16.77;;;10.75;;
35330;SDS011;21441;52.190;20.910;2024-02-16T08:13:26;18.48;;;11.02;;
35330;SDS011;21441;52.190;20.910;2024-02-16T08:15:53;19.55;;;11.40;;
35330;SDS011;21441;52.190;20.910;2024-02-16T08:18:20;18.88;;;12.20;;
35330;SDS011;21441;52.190;20.910;2024-02-16T08:20:47;20.15;;;11.82;;
35330;SDS011;21441;52.190;20.910;2024-02-16T08:23:13;18.15;;;10.93;;
35330;SDS011;21441;52.190;20.910;2024-02-16T08:25:42;20.42;;;12.23;;
35330;SDS011;21441;52.190;20.910;2024-02-16T08:28:08;22.00;;;12.23;;
35330;SDS011;21441;52.190;20.910;2024-02-16T08:30:35;20.30;;;12.02;;
35330;SDS011;21441;52.190;20.910;2024-02-16T08:33:06;19.20;;;11.48;;
35330;SDS011;21441;52.190;20.910;2024-02-16T08:35:33;18.73;;;11.52;;
35330;SDS011;21441;52.190;20.910;2024-02-16T08:37:59;17.90;;;11.45;;
35330;SDS011;21441;52.190;20.910;2024-02-16T08:40:26;17.58;;;11.75;;
35330;SDS011;21441;52.190;20.910;2024-02-16T08:42:55;17.33;;;10.30;;
35330;SDS011;21441;52.190;20.910;2024-02-16T08:45:22;21.50;;;11.88;;
35330;SDS011;21441;52.190;20.910;2024-02-16T08:47:49;19.10;;;12.40;;
35330;SDS011;21441;52.190;20.910;2024-02-16T08:50:16;16.63;;;10.80;;
35330;SDS011;21441;52.190;20.910;2024-02-16T08:52:42;18.63;;;11.23;;
35330;SDS011;21441;52.190;20.910;2024-02-16T08:55:10;19.40;;;11.63;;
35330;SDS011;21441;52.190;20.910;2024-02-16T08:57:38;16.52;;;10.80;;
35330;SDS011;21441;52.190;20.910;2024-02-16T09:00:07;15.85;;;11.90;;
35330;SDS011;21441;52.190;20.910;2024-02-16T09:02:35;17.83;;;10.75;;
35330;SDS011;21441;52.190;20.910;2024-02-16T09:05:02;18.58;;;11.55;;
35330;SDS011;21441;52.190;20.910;2024-02-16T09:07:28;18.95;;;10.88;;
35330;SDS011;21441;52.190;20.910;2024-02-16T09:09:55;15.27;;;10.40;;
35330;SDS011;21441;52.190;20.910;2024-02-16T09:12:22;15.52;;;10.77;;
35330;SDS011;21441;52.190;20.910;2024-02-16T09:14:49;15.43;;;10.40;;
35330;SDS011;21441;52.190;20.910;2024-02-16T09:17:17;16.10;;;9.38;;
35330;SDS011;21441;52.190;20.910;2024-02-16T09:19:46;15.70;;;10.63;;
35330;SDS011;21441;52.190;20.910;2024-02-16T09:22:12;18.25;;;11.35;;
35330;SDS011;21441;52.190;20.910;2024-02-16T09:24:40;20.67;;;10.85;;
35330;SDS011;21441;52.190;20.910;2024-02-16T09:27:07;17.52;;;10.32;;
35330;SDS011;21441;52.190;20.910;2024-02-16T09:29:35;16.40;;;10.13;;
35330;SDS011;21441;52.190;20.910;2024-02-16T09:32:02;17.58;;;10.80;;
35330;SDS011;21441;52.190;20.910;2024-02-16T09:34:30;15.52;;;10.20;;
35330;SDS011;21441;52.190;20.910;2024-02-16T09:36:57;15.75;;;11.10;;
35330;SDS011;21441;52.190;20.910;2024-02-16T09:39:24;21.88;;;11.73;;
35330;SDS011;21441;52.190;20.910;2024-02-16T09:41:53;21.52;;;10.80;;
35330;SDS011;21441;52.190;20.910;2024-02-16T09:44:20;18.98;;;10.90;;
35330;SDS011;21441;52.190;20.910;2024-02-16T09:46:48;13.73;;;9.80;;
35330;SDS011;21441;52.190;20.910;2024-02-16T09:49:15;16.80;;;11.35;;
35330;SDS011;21441;52.190;20.910;2024-02-16T09:51:43;13.05;;;10.07;;
35330;SDS011;21441;52.190;20.910;2024-02-16T09:54:10;15.77;;;10.38;;
35330;SDS011;21441;52.190;20.910;2024-02-16T09:56:37;14.77;;;10.25;;
35330;SDS011;21441;52.190;20.910;2024-02-16T09:59:05;15.35;;;9.52;;
35330;SDS011;21441;52.190;20.910;2024-02-16T10:01:33;19.40;;;10.18;;
35330;SDS011;21441;52.190;20.910;2024-02-16T10:04:05;14.50;;;10.43;;
35330;SDS011;21441;52.190;20.910;2024-02-16T10:06:32;13.93;;;10.52;;
35330;SDS011;21441;52.190;20.910;2024-02-16T10:09:00;19.77;;;10.70;;
35330;SDS011;21441;52.190;20.910;2024-02-16T10:11:31;14.45;;;10.55;;
35330;SDS011;21441;52.190;20.910;2024-02-16T10:13:59;14.07;;;10.43;;
35330;SDS011;21441;52.190;20.910;2024-02-16T10:16:26;12.35;;;10.00;;
35330;SDS011;21441;52.190;20.910;2024-02-16T10:18:54;14.20;;;10.70;;
35330;SDS011;21441;52.190;20.910;2024-02-16T10:21:25;12.52;;;10.02;;
35330;SDS011;21441;52.190;20.910;2024-02-16T10:23:56;15.32;;;10.38;;
35330;SDS011;21441;52.190;20.910;2024-02-16T10:26:24;14.88;;;10.45;;
35330;SDS011;21441;52.190;20.910;2024-02-16T10:28:52;15.05;;;9.27;;
35330;SDS011;21441;52.190;20.910;2024-02-16T10:31:19;15.25;;;10.10;;
35330;SDS011;21441;52.190;20.910;2024-02-16T10:33:51;16.05;;;10.88;;
35330;SDS011;21441;52.190;20.910;2024-02-16T10:36:18;13.55;;;9.57;;
35330;SDS011;21441;52.190;20.910;2024-02-16T10:38:45;12.93;;;9.93;;
35330;SDS011;21441;52.190;20.910;2024-02-16T10:41:13;15.52;;;10.35;;
35330;SDS011;21441;52.190;20.910;2024-02-16T10:43:42;17.95;;;13.15;;
35330;SDS011;21441;52.190;20.910;2024-02-16T10:46:09;13.88;;;10.45;;
35330;SDS011;21441;52.190;20.910;2024-02-16T10:48:36;15.25;;;11.20;;
35330;SDS011;21441;52.190;20.910;2024-02-16T10:51:03;14.43;;;11.15;;
35330;SDS011;21441;52.190;20.910;2024-02-16T10:53:30;15.75;;;11.05;;
35330;SDS011;21441;52.190;20.910;2024-02-16T10:55:58;14.10;;;10.32;;
35330;SDS011;21441;52.190;20.910;2024-02-16T10:58:26;16.30;;;11.75;;
35330;SDS011;21441;52.190;20.910;2024-02-16T11:00:55;17.10;;;11.60;;
35330;SDS011;21441;52.190;20.910;2024-02-16T11:03:23;17.38;;;10.68;;
35330;SDS011;21441;52.190;20.910;2024-02-16T11:05:51;15.80;;;11.73;;
35330;SDS011;21441;52.190;20.910;2024-02-16T11:08:18;16.52;;;11.00;;
35330;SDS011;21441;52.190;20.910;2024-02-16T11:13:32;15.20;;;10.95;;
35330;SDS011;21441;52.190;20.910;2024-02-16T11:16:00;15.38;;;11.43;;
35330;SDS011;21441;52.190;20.910;2024-02-16T11:18:28;15.73;;;11.18;;
35330;SDS011;21441;52.190;20.910;2024-02-16T11:20:55;15.23;;;10.95;;
35330;SDS011;21441;52.190;20.910;2024-02-16T11:23:26;14.32;;;11.23;;
35330;SDS011;21441;52.190;20.910;2024-02-16T11:25:54;19.27;;;12.20;;
35330;SDS011;21441;52.190;20.910;2024-02-16T11:28:21;14.77;;;10.65;;
35330;SDS011;21441;52.190;20.910;2024-02-16T11:30:47;14.93;;;11.32;;
35330;SDS011;21441;52.190;20.910;2024-02-16T11:33:16;16.45;;;12.77;;
35330;SDS011;21441;52.190;20.910;2024-02-16T11:35:51;17.17;;;11.60;;
35330;SDS011;21441;52.190;20.910;2024-02-16T11:38:18;13.95;;;11.52;;
35330;SDS011;21441;52.190;20.910;2024-02-16T11:40:52;13.05;;;10.32;;
35330;SDS011;21441;52.190;20.910;2024-02-16T11:43:19;16.92;;;12.02;;
35330;SDS011;21441;52.190;20.910;2024-02-16T11:45:46;19.10;;;11.15;;
35330;SDS011;21441;52.190;20.910;2024-02-16T11:48:18;16.85;;;11.88;;
35330;SDS011;21441;52.190;20.910;2024-02-16T11:50:46;15.60;;;10.68;;
35330;SDS011;21441;52.190;20.910;2024-02-16T11:53:17;17.45;;;11.18;;
35330;SDS011;21441;52.190;20.910;2024-02-16T11:55:47;15.63;;;10.95;;
35330;SDS011;21441;52.190;20.910;2024-02-16T11:58:15;13.77;;;10.80;;
35330;SDS011;21441;52.190;20.910;2024-02-16T12:00:43;17.23;;;11.40;;
35330;SDS011;21441;52.190;20.910;2024-02-16T12:03:10;13.20;;;10.80;;
35330;SDS011;21441;52.190;20.910;2024-02-16T12:05:37;15.95;;;10.25;;
35330;SDS011;21441;52.190;20.910;2024-02-16T12:08:06;14.70;;;10.40;;
35330;SDS011;21441;52.190;20.910;2024-02-16T12:10:33;14.00;;;11.20;;
35330;SDS011;21441;52.190;20.910;2024-02-16T12:13:02;14.48;;;10.98;;
35330;SDS011;21441;52.190;20.910;2024-02-16T12:15:30;15.10;;;10.77;;
35330;SDS011;21441;52.190;20.910;2024-02-16T12:17:58;12.90;;;9.60;;
35330;SDS011;21441;52.190;20.910;2024-02-16T12:20:25;15.73;;;10.50;;
35330;SDS011;21441;52.190;20.910;2024-02-16T12:22:52;17.52;;;10.32;;
35330;SDS011;21441;52.190;20.910;2024-02-16T12:25:19;14.70;;;9.90;;
35330;SDS011;21441;52.190;20.910;2024-02-16T12:27:46;13.20;;;10.52;;
35330;SDS011;21441;52.190;20.910;2024-02-16T12:30:13;14.77;;;9.65;;
35330;SDS011;21441;52.190;20.910;2024-02-16T12:32:41;14.65;;;9.63;;
35330;SDS011;21441;52.190;20.910;2024-02-16T12:35:08;14.27;;;10.18;;
35330;SDS011;21441;52.190;20.910;2024-02-16T12:37:35;10.98;;;8.98;;
35330;SDS011;21441;52.190;20.910;2024-02-16T12:40:03;12.65;;;8.30;;
35330;SDS011;21441;52.190;20.910;2024-02-16T12:42:33;13.20;;;8.47;;
35330;SDS011;21441;52.190;20.910;2024-02-16T12:44:59;10.48;;;8.10;;
35330;SDS011;21441;52.190;20.910;2024-02-16T12:47:27;11.30;;;7.95;;
35330;SDS011;21441;52.190;20.910;2024-02-16T12:50:22;8.50;;;6.53;;
35330;SDS011;21441;52.190;20.910;2024-02-16T12:53:17;9.77;;;6.47;;
35330;SDS011;21441;52.190;20.910;2024-02-16T12:56:12;10.80;;;6.80;;
35330;SDS011;21441;52.190;20.910;2024-02-16T12:59:09;10.27;;;6.60;;
35330;SDS011;21441;52.190;20.910;2024-02-16T13:02:04;10.45;;;6.90;;
35330;SDS011;21441;52.190;20.910;2024-02-16T13:04:59;11.18;;;7.28;;
35330;SDS011;21441;52.190;20.910;2024-02-16T13:07:55;13.98;;;8.15;;
35330;SDS011;21441;52.190;20.910;2024-02-16T13:10:50;9.70;;;6.95;;
35330;SDS011;21441;52.190;20.910;2024-02-16T13:13:45;10.10;;;6.25;;
35330;SDS011;21441;52.190;20.910;2024-02-16T13:16:41;8.85;;;6.82;;
35330;SDS011;21441;52.190;20.910;2024-02-16T13:19:36;10.10;;;7.63;;
35330;SDS011;21441;52.190;20.910;2024-02-16T13:22:32;14.07;;;8.32;;
35330;SDS011;21441;52.190;20.910;2024-02-16T13:25:27;12.98;;;9.25;;
35330;SDS011;21441;52.190;20.910;2024-02-16T13:28:22;14.15;;;9.70;;
35330;SDS011;21441;52.190;20.910;2024-02-16T13:31:18;13.60;;;10.27;;
35330;SDS011;21441;52.190;20.910;2024-02-16T13:34:14;13.52;;;9.88;;
35330;SDS011;21441;52.190;20.910;2024-02-16T13:37:09;13.23;;;9.45;;
35330;SDS011;21441;52.190;20.910;2024-02-16T13:40:05;14.75;;;10.32;;
35330;SDS011;21441;52.190;20.910;2024-02-16T13:43:04;17.25;;;10.80;;
35330;SDS011;21441;52.190;20.910;2024-02-16T13:46:00;13.90;;;9.63;;
35330;SDS011;21441;52.190;20.910;2024-02-16T13:48:55;12.88;;;9.77;;
35330;SDS011;21441;52.190;20.910;2024-02-16T13:51:54;13.13;;;9.77;;
35330;SDS011;21441;52.190;20.910;2024-02-16T13:54:52;14.93;;;10.27;;
35330;SDS011;21441;52.190;20.910;2024-02-16T13:57:48;14.15;;;9.63;;
35330;SDS011;21441;52.190;20.910;2024-02-16T14:00:43;16.60;;;9.23;;
35330;SDS011;21441;52.190;20.910;2024-02-16T14:03:38;15.25;;;9.85;;
35330;SDS011;21441;52.190;20.910;2024-02-16T14:06:34;11.50;;;9.82;;
35330;SDS011;21441;52.190;20.910;2024-02-16T14:09:30;13.93;;;10.13;;
35330;SDS011;21441;52.190;20.910;2024-02-16T14:12:25;16.23;;;9.55;;
35330;SDS011;21441;52.190;20.910;2024-02-16T14:15:21;16.95;;;10.02;;
35330;SDS011;21441;52.190;20.910;2024-02-16T14:18:16;13.57;;;8.80;;
35330;SDS011;21441;52.190;20.910;2024-02-16T14:21:11;15.13;;;8.93;;
35330;SDS011;21441;52.190;20.910;2024-02-16T14:23:38;10.70;;;8.32;;
35330;SDS011;21441;52.190;20.910;2024-02-16T14:26:06;16.27;;;9.50;;
35330;SDS011;21441;52.190;20.910;2024-02-16T14:28:33;14.25;;;8.25;;
35330;SDS011;21441;52.190;20.910;2024-02-16T14:31:00;13.02;;;8.73;;